首页
METAR-TAF:

METAR-TAF

机场 :

Penn Yan Airport

Penn Yan, 紐約州, 美国

纬度: 42-38-35N, 经度: 077-02-58W, 海拔: 275米

当前天气观测

该预报发布于1小时和7分钟前的14:53 UTC
风速17节,风向南转西南,有时为30节阵风
温度 2°C
湿度 69%
气压 1024 hPa
能見度: 16.1公里
天空无云

METAR: KPEO 131453Z AUTO 20017G30KT 10SM CLR 02/M03 A3023 RMK AO2 PK WND 21030/1446 SLP249 T00171033 56006

时间: 11:00 (16:00 UTC)


TAF: 丢失

超过4000个机场的气象观测和天气预报(METAR&TAF报告)。

可查询的气象台以黄色和红色小点在地图上表示。

将鼠标移到小点上方,可查看气象台名称。

然后点击查看天气观测和预报。

如需切换地图:点击带黑十字的绿色按钮放大地图;点击带横线的绿色按钮缩小地图;或者点击绿色箭头查看邻近地区的地图。


METAR-TAF: